sensor_id;sensor_type;location;lat;lon;timestamp;pressure;altitude;pressure_sealevel;temperature;humidity
50852;BME280;43953;45.508;-122.806;2024-02-21T00:00:04;100240.47;;;25.01;35.29
50852;BME280;43953;45.508;-122.806;2024-02-21T00:00:36;100233.00;;;25.01;35.14
50852;BME280;43953;45.508;-122.806;2024-02-21T00:01:15;100233.81;;;25.02;35.36
50852;BME280;43953;45.508;-122.806;2024-02-21T00:01:47;100223.94;;;25.01;35.03
50852;BME280;43953;45.508;-122.806;2024-02-21T00:02:19;100236.09;;;25.00;35.06
50852;BME280;43953;45.508;-122.806;2024-02-21T00:02:50;100227.84;;;25.00;35.15
50852;BME280;43953;45.508;-122.806;2024-02-21T00:03:22;100228.63;;;25.00;35.07
50852;BME280;43953;45.508;-122.806;2024-02-21T00:03:54;100227.84;;;25.00;35.36
50852;BME280;43953;45.508;-122.806;2024-02-21T00:04:26;100227.00;;;24.99;35.13
50852;BME280;43953;45.508;-122.806;2024-02-21T00:04:57;100202.47;;;24.80;35.37
50852;BME280;43953;45.508;-122.806;2024-02-21T00:05:29;100226.19;;;24.98;35.31
50852;BME280;43953;45.508;-122.806;2024-02-21T00:06:01;100220.69;;;24.98;35.09
50852;BME280;43953;45.508;-122.806;2024-02-21T00:06:32;100226.19;;;24.98;35.32
50852;BME280;43953;45.508;-122.806;2024-02-21T00:07:04;100223.75;;;24.97;35.29
50852;BME280;43953;45.508;-122.806;2024-02-21T00:07:36;100221.81;;;24.97;35.31
50852;BME280;43953;45.508;-122.806;2024-02-21T00:08:08;100224.56;;;24.97;35.02
50852;BME280;43953;45.508;-122.806;2024-02-21T00:08:40;100221.81;;;24.97;35.15
50852;BME280;43953;45.508;-122.806;2024-02-21T00:09:11;100221.31;;;24.95;35.08
50852;BME280;43953;45.508;-122.806;2024-02-21T00:09:43;100222.44;;;24.94;35.01
50852;BME280;43953;45.508;-122.806;2024-02-21T00:10:15;100226.81;;;24.95;35.34
50852;BME280;43953;45.508;-122.806;2024-02-21T00:10:46;100226.00;;;24.95;35.09
50852;BME280;43953;45.508;-122.806;2024-02-21T00:11:18;100215.09;;;24.81;35.32
50852;BME280;43953;45.508;-122.806;2024-02-21T00:11:50;100237.34;;;24.93;35.08
50852;BME280;43953;45.508;-122.806;2024-02-21T00:12:22;100234.56;;;24.93;35.24
50852;BME280;43953;45.508;-122.806;2024-02-21T00:12:53;100239.28;;;24.93;35.07
50852;BME280;43953;45.508;-122.806;2024-02-21T00:13:25;100236.22;;;24.94;35.29
50852;BME280;43953;45.508;-122.806;2024-02-21T00:13:57;100240.94;;;24.94;35.44
50852;BME280;43953;45.508;-122.806;2024-02-21T00:14:29;100234.56;;;24.93;35.28
50852;BME280;43953;45.508;-122.806;2024-02-21T00:15:01;100230.72;;;24.94;35.44
50852;BME280;43953;45.508;-122.806;2024-02-21T00:15:32;100240.09;;;24.93;35.25
50852;BME280;43953;45.508;-122.806;2024-02-21T00:16:04;100225.50;;;24.93;35.46
50852;BME280;43953;45.508;-122.806;2024-02-21T00:16:36;100222.75;;;24.93;35.39
50852;BME280;43953;45.508;-122.806;2024-02-21T00:17:08;100219.19;;;24.92;35.16
50852;BME280;43953;45.508;-122.806;2024-02-21T00:17:39;100213.69;;;24.92;35.50
50852;BME280;43953;45.508;-122.806;2024-02-21T00:18:12;100215.63;;;24.92;35.31
50852;BME280;43953;45.508;-122.806;2024-02-21T00:18:44;100214.81;;;24.91;35.28
50852;BME280;43953;45.508;-122.806;2024-02-21T00:19:16;100216.44;;;24.92;35.42
50852;BME280;43953;45.508;-122.806;2024-02-21T00:19:48;100215.94;;;24.90;35.47
50852;BME280;43953;45.508;-122.806;2024-02-21T00:20:20;100220.34;;;24.91;35.41
50852;BME280;43953;45.508;-122.806;2024-02-21T00:20:53;100225.84;;;24.91;35.22
50852;BME280;43953;45.508;-122.806;2024-02-21T00:21:25;100225.84;;;24.91;35.18
50852;BME280;43953;45.508;-122.806;2024-02-21T00:21:57;100220.34;;;24.91;35.18
50852;BME280;43953;45.508;-122.806;2024-02-21T00:22:29;100224.69;;;24.92;35.35
50852;BME280;43953;45.508;-122.806;2024-02-21T00:23:02;100231.53;;;24.95;35.18
50852;BME280;43953;45.508;-122.806;2024-02-21T00:23:34;100222.97;;;24.96;35.41
50852;BME280;43953;45.508;-122.806;2024-02-21T00:24:06;100221.47;;;24.99;35.17
50852;BME280;43953;45.508;-122.806;2024-02-21T00:24:38;100226.34;;;25.02;35.31
50852;BME280;43953;45.508;-122.806;2024-02-21T00:25:10;100226.06;;;25.04;35.09
50852;BME280;43953;45.508;-122.806;2024-02-21T00:25:42;100222.66;;;25.07;35.12
50852;BME280;43953;45.508;-122.806;2024-02-21T00:26:14;100214.91;;;25.09;34.91
50852;BME280;43953;45.508;-122.806;2024-02-21T00:26:46;100211.50;;;25.12;35.01
50852;BME280;43953;45.508;-122.806;2024-02-21T00:27:18;100209.25;;;25.14;35.15
50852;BME280;43953;45.508;-122.806;2024-02-21T00:27:49;100216.88;;;25.17;34.94
50852;BME280;43953;45.508;-122.806;2024-02-21T00:28:21;100213.81;;;25.18;34.90
50852;BME280;43953;45.508;-122.806;2024-02-21T00:28:53;100216.25;;;25.20;35.03
50852;BME280;43953;45.508;-122.806;2024-02-21T00:29:25;100212.38;;;25.21;34.82
50852;BME280;43953;45.508;-122.806;2024-02-21T00:29:57;100204.91;;;25.22;35.07
50852;BME280;43953;45.508;-122.806;2024-02-21T00:30:28;100206.53;;;25.23;35.04
50852;BME280;43953;45.508;-122.806;2024-02-21T00:31:00;100203.78;;;25.23;34.96
50852;BME280;43953;45.508;-122.806;2024-02-21T00:31:32;100184.78;;;25.12;35.26
50852;BME280;43953;45.508;-122.806;2024-02-21T00:32:04;100204.91;;;25.22;34.84
50852;BME280;43953;45.508;-122.806;2024-02-21T00:32:35;100160.41;;;24.97;35.02
50852;BME280;43953;45.508;-122.806;2024-02-21T00:33:07;100199.72;;;25.20;34.98
50852;BME280;43953;45.508;-122.806;2024-02-21T00:33:39;100204.41;;;25.19;34.83
50852;BME280;43953;45.508;-122.806;2024-02-21T00:34:11;100198.09;;;25.19;34.90
50852;BME280;43953;45.508;-122.806;2024-02-21T00:34:44;100192.94;;;25.17;35.23
50852;BME280;43953;45.508;-122.806;2024-02-21T00:35:15;100198.44;;;25.17;35.27
50852;BME280;43953;45.508;-122.806;2024-02-21T00:35:47;100199.88;;;25.15;35.17
50852;BME280;43953;45.508;-122.806;2024-02-21T00:36:19;100192.72;;;25.14;35.01
50852;BME280;43953;45.508;-122.806;2024-02-21T00:36:51;100191.09;;;25.13;35.21
50852;BME280;43953;45.508;-122.806;2024-02-21T00:37:22;100188.34;;;25.13;35.11
50852;BME280;43953;45.508;-122.806;2024-02-21T00:37:54;100183.97;;;25.12;35.08
50852;BME280;43953;45.508;-122.806;2024-02-21T00:38:28;100194.97;;;25.12;35.09
50852;BME280;43953;45.508;-122.806;2024-02-21T00:39:00;100188.66;;;25.11;35.08
50852;BME280;43953;45.508;-122.806;2024-02-21T00:39:32;100188.97;;;25.10;35.18
50852;BME280;43953;45.508;-122.806;2024-02-21T00:40:04;100190.91;;;25.09;34.97
50852;BME280;43953;45.508;-122.806;2024-02-21T00:40:36;100189.31;;;25.08;35.18
50852;BME280;43953;45.508;-122.806;2024-02-21T00:41:08;100187.34;;;25.09;35.18
50852;BME280;43953;45.508;-122.806;2024-02-21T00:41:40;100186.56;;;25.08;35.37
50852;BME280;43953;45.508;-122.806;2024-02-21T00:42:11;100177.44;;;25.08;35.23
50852;BME280;43953;45.508;-122.806;2024-02-21T00:42:43;100149.38;;;24.88;35.14
50852;BME280;43953;45.508;-122.806;2024-02-21T00:43:15;100185.72;;;25.08;35.14
50852;BME280;43953;45.508;-122.806;2024-02-21T00:43:47;100181.34;;;25.07;35.09
50852;BME280;43953;45.508;-122.806;2024-02-21T00:44:20;100180.53;;;25.06;35.04
50852;BME280;43953;45.508;-122.806;2024-02-21T00:44:51;100176.97;;;25.06;35.25
50852;BME280;43953;45.508;-122.806;2024-02-21T00:45:23;100175.34;;;25.05;35.33
50852;BME280;43953;45.508;-122.806;2024-02-21T00:45:55;100180.84;;;25.05;35.46
50852;BME280;43953;45.508;-122.806;2024-02-21T00:46:26;100180.84;;;25.05;35.42
50852;BME280;43953;45.508;-122.806;2024-02-21T00:46:58;100173.72;;;25.04;35.36
50852;BME280;43953;45.508;-122.806;2024-02-21T00:47:30;100177.28;;;25.04;35.20
50852;BME280;43953;45.508;-122.806;2024-02-21T00:48:02;100179.53;;;25.02;35.26
50852;BME280;43953;45.508;-122.806;2024-02-21T00:48:33;100178.44;;;25.03;35.47
50852;BME280;43953;45.508;-122.806;2024-02-21T00:49:05;100172.91;;;25.03;35.51
50852;BME280;43953;45.508;-122.806;2024-02-21T00:49:37;100166.59;;;25.03;35.27
50852;BME280;43953;45.508;-122.806;2024-02-21T00:50:09;100169.34;;;25.03;35.25
50852;BME280;43953;45.508;-122.806;2024-02-21T00:50:40;100168.53;;;25.02;35.42
50852;BME280;43953;45.508;-122.806;2024-02-21T00:51:14;100151.00;;;24.89;35.18
50852;BME280;43953;45.508;-122.806;2024-02-21T00:51:45;100172.41;;;25.01;35.13
50852;BME280;43953;45.508;-122.806;2024-02-21T00:52:17;100164.16;;;25.01;35.46
50852;BME280;43953;45.508;-122.806;2024-02-21T00:52:49;100129.91;;;24.76;35.32
50852;BME280;43953;45.508;-122.806;2024-02-21T00:53:21;100169.66;;;25.01;35.23
50852;BME280;43953;45.508;-122.806;2024-02-21T00:53:52;100172.41;;;25.01;35.31
50852;BME280;43953;45.508;-122.806;2024-02-21T00:54:24;100169.66;;;25.01;35.07
50852;BME280;43953;45.508;-122.806;2024-02-21T00:54:56;100167.25;;;25.00;35.28
50852;BME280;43953;45.508;-122.806;2024-02-21T00:55:28;100165.28;;;25.00;35.29
50852;BME280;43953;45.508;-122.806;2024-02-21T00:55:59;100163.66;;;24.99;35.36
50852;BME280;43953;45.508;-122.806;2024-02-21T00:56:31;100165.59;;;24.98;35.35
50852;BME280;43953;45.508;-122.806;2024-02-21T00:57:03;100168.69;;;24.97;35.51
50852;BME280;43953;45.508;-122.806;2024-02-21T00:57:35;100163.97;;;24.97;35.58
50852;BME280;43953;45.508;-122.806;2024-02-21T00:58:06;100163.19;;;24.97;35.25
50852;BME280;43953;45.508;-122.806;2024-02-21T00:58:38;100162.38;;;24.96;35.33
50852;BME280;43953;45.508;-122.806;2024-02-21T00:59:10;100167.03;;;24.96;35.29
50852;BME280;43953;45.508;-122.806;2024-02-21T00:59:42;100170.63;;;24.96;35.31
50852;BME280;43953;45.508;-122.806;2024-02-21T01:00:14;100164.63;;;24.94;35.25
50852;BME280;43953;45.508;-122.806;2024-02-21T01:00:45;100161.06;;;24.94;35.31
50852;BME280;43953;45.508;-122.806;2024-02-21T01:01:24;100154.72;;;24.93;35.49
50852;BME280;43953;45.508;-122.806;2024-02-21T01:01:56;100156.38;;;24.94;35.40
50852;BME280;43953;45.508;-122.806;2024-02-21T01:02:28;100166.56;;;24.94;35.48
50852;BME280;43953;45.508;-122.806;2024-02-21T01:03:02;100150.34;;;24.92;35.31
50852;BME280;43953;45.508;-122.806;2024-02-21T01:03:34;100157.47;;;24.93;35.56
50852;BME280;43953;45.508;-122.806;2024-02-21T01:04:06;100155.84;;;24.92;35.53
50852;BME280;43953;45.508;-122.806;2024-02-21T01:04:37;100159.41;;;24.93;35.60
50852;BME280;43953;45.508;-122.806;2024-02-21T01:05:09;100157.81;;;24.92;35.62
50852;BME280;43953;45.508;-122.806;2024-02-21T01:05:41;100160.56;;;24.92;35.49
50852;BME280;43953;45.508;-122.806;2024-02-21T01:06:13;100150.44;;;24.79;35.59
50852;BME280;43953;45.508;-122.806;2024-02-21T01:06:44;100158.09;;;24.90;35.44
50852;BME280;43953;45.508;-122.806;2024-02-21T01:07:16;100161.69;;;24.91;35.34
50852;BME280;43953;45.508;-122.806;2024-02-21T01:07:48;100161.69;;;24.91;35.24
50852;BME280;43953;45.508;-122.806;2024-02-21T01:08:20;100158.94;;;24.91;35.41
50852;BME280;43953;45.508;-122.806;2024-02-21T01:08:51;100158.09;;;24.90;35.47
50852;BME280;43953;45.508;-122.806;2024-02-21T01:09:23;100160.88;;;24.90;35.43
50852;BME280;43953;45.508;-122.806;2024-02-21T01:09:55;100156.50;;;24.89;35.57
50852;BME280;43953;45.508;-122.806;2024-02-21T01:10:27;100153.75;;;24.89;35.61
50852;BME280;43953;45.508;-122.806;2024-02-21T01:10:58;100152.94;;;24.89;35.55
50852;BME280;43953;45.508;-122.806;2024-02-21T01:11:30;100149.38;;;24.88;35.51
50852;BME280;43953;45.508;-122.806;2024-02-21T01:12:02;100141.91;;;24.89;35.37
50852;BME280;43953;45.508;-122.806;2024-02-21T01:12:35;100150.19;;;24.89;35.44
50852;BME280;43953;45.508;-122.806;2024-02-21T01:13:06;100148.22;;;24.89;35.23
50852;BME280;43953;45.508;-122.806;2024-02-21T01:13:38;100152.59;;;24.90;35.28
50852;BME280;43953;45.508;-122.806;2024-02-21T01:14:10;100148.75;;;24.91;35.28
50852;BME280;43953;45.508;-122.806;2024-02-21T01:14:42;100147.59;;;24.92;35.45
50852;BME280;43953;45.508;-122.806;2024-02-21T01:15:14;100152.47;;;24.95;35.61
50852;BME280;43953;45.508;-122.806;2024-02-21T01:15:46;100142.09;;;24.92;35.47
50852;BME280;43953;45.508;-122.806;2024-02-21T01:16:17;100146.81;;;25.01;35.64
50852;BME280;43953;45.508;-122.806;2024-02-21T01:16:49;100154.44;;;25.04;35.44
50852;BME280;43953;45.508;-122.806;2024-02-21T01:17:21;100148.28;;;25.07;35.53
50852;BME280;43953;45.508;-122.806;2024-02-21T01:17:53;100150.41;;;25.10;35.49
50852;BME280;43953;45.508;-122.806;2024-02-21T01:18:25;100152.84;;;25.11;35.22
50852;BME280;43953;45.508;-122.806;2024-02-21T01:18:57;100152.53;;;25.13;35.22
50852;BME280;43953;45.508;-122.806;2024-02-21T01:19:29;100154.66;;;25.16;34.89
50852;BME280;43953;45.508;-122.806;2024-02-21T01:20:01;100149.97;;;25.16;35.14
50852;BME280;43953;45.508;-122.806;2024-02-21T01:20:32;100151.59;;;25.17;35.26
50852;BME280;43953;45.508;-122.806;2024-02-21T01:21:04;100162.63;;;25.17;35.23
50852;BME280;43953;45.508;-122.806;2024-02-21T01:21:38;100157.91;;;25.18;35.02
50852;BME280;43953;45.508;-122.806;2024-02-21T01:22:09;100157.59;;;25.19;35.30
50852;BME280;43953;45.508;-122.806;2024-02-21T01:22:41;100155.63;;;25.20;35.26
50852;BME280;43953;45.508;-122.806;2024-02-21T01:23:13;100145.44;;;25.21;35.11
50852;BME280;43953;45.508;-122.806;2024-02-21T01:23:45;100123.81;;;25.05;34.99
50852;BME280;43953;45.508;-122.806;2024-02-21T01:24:17;100137.50;;;25.19;34.98
50852;BME280;43953;45.508;-122.806;2024-02-21T01:24:48;100143.00;;;25.19;35.15
50852;BME280;43953;45.508;-122.806;2024-02-21T01:25:20;100141.38;;;25.18;35.25
50852;BME280;43953;45.508;-122.806;2024-02-21T01:25:52;100141.38;;;25.18;35.13
50852;BME280;43953;45.508;-122.806;2024-02-21T01:26:24;100147.22;;;25.16;35.20
50852;BME280;43953;45.508;-122.806;2024-02-21T01:26:55;100139.75;;;25.17;35.20
50852;BME280;43953;45.508;-122.806;2024-02-21T01:27:27;100148.34;;;25.15;35.01
50852;BME280;43953;45.508;-122.806;2024-02-21T01:27:59;100146.72;;;25.14;35.13
50852;BME280;43953;45.508;-122.806;2024-02-21T01:28:31;100149.75;;;25.13;35.26
50852;BME280;43953;45.508;-122.806;2024-02-21T01:29:02;100144.25;;;25.13;34.88
50852;BME280;43953;45.508;-122.806;2024-02-21T01:29:34;100148.97;;;25.12;35.28
50852;BME280;43953;45.508;-122.806;2024-02-21T01:30:06;100155.63;;;25.11;35.48
50852;BME280;43953;45.508;-122.806;2024-02-21T01:30:38;100131.44;;;25.00;35.21
50852;BME280;43953;45.508;-122.806;2024-02-21T01:31:10;100153.16;;;25.10;35.19
50852;BME280;43953;45.508;-122.806;2024-02-21T01:31:42;100153.50;;;25.08;35.35
50852;BME280;43953;45.508;-122.806;2024-02-21T01:32:13;100153.50;;;25.08;35.10
50852;BME280;43953;45.508;-122.806;2024-02-21T01:32:45;100145.53;;;25.07;35.32
50852;BME280;43953;45.508;-122.806;2024-02-21T01:33:17;100126.72;;;24.91;35.54
50852;BME280;43953;45.508;-122.806;2024-02-21T01:33:50;100144.72;;;25.06;35.29
50852;BME280;43953;45.508;-122.806;2024-02-21T01:34:21;100150.25;;;25.06;35.46
50852;BME280;43953;45.508;-122.806;2024-02-21T01:34:53;100145.84;;;25.05;35.49
50852;BME280;43953;45.508;-122.806;2024-02-21T01:35:25;100146.97;;;25.04;35.41
50852;BME280;43953;45.508;-122.806;2024-02-21T01:35:57;100146.97;;;25.04;35.15
50852;BME280;43953;45.508;-122.806;2024-02-21T01:36:28;100141.81;;;25.03;35.14
50852;BME280;43953;45.508;-122.806;2024-02-21T01:37:00;100157.19;;;25.04;35.48
50852;BME280;43953;45.508;-122.806;2024-02-21T01:37:35;100161.09;;;25.03;35.47
50852;BME280;43953;45.508;-122.806;2024-02-21T01:38:07;100163.84;;;25.03;35.26
50852;BME280;43953;45.508;-122.806;2024-02-21T01:38:38;100165.75;;;25.02;35.45
50852;BME280;43953;45.508;-122.806;2024-02-21T01:39:10;100165.75;;;25.02;35.51
50852;BME280;43953;45.508;-122.806;2024-02-21T01:39:42;100167.72;;;25.02;35.46
50852;BME280;43953;45.508;-122.806;2024-02-21T01:40:14;100166.09;;;25.01;35.45
50852;BME280;43953;45.508;-122.806;2024-02-21T01:40:46;100167.25;;;25.00;35.66
50852;BME280;43953;45.508;-122.806;2024-02-21T01:41:18;100163.66;;;24.99;35.22
50852;BME280;43953;45.508;-122.806;2024-02-21T01:41:49;100168.03;;;25.00;35.43
50852;BME280;43953;45.508;-122.806;2024-02-21T01:42:21;100171.59;;;25.01;35.25
50852;BME280;43953;45.508;-122.806;2024-02-21T01:42:55;100170.00;;;25.00;35.27
50852;BME280;43953;45.508;-122.806;2024-02-21T01:43:27;100170.00;;;25.00;35.29
50852;BME280;43953;45.508;-122.806;2024-02-21T01:43:59;100168.84;;;25.01;35.36
50852;BME280;43953;45.508;-122.806;2024-02-21T01:44:31;100168.84;;;25.01;35.21
50852;BME280;43953;45.508;-122.806;2024-02-21T01:45:03;100170.00;;;25.00;35.51
50852;BME280;43953;45.508;-122.806;2024-02-21T01:45:35;100165.28;;;25.00;35.19
50852;BME280;43953;45.508;-122.806;2024-02-21T01:46:07;100172.75;;;25.00;35.34
50852;BME280;43953;45.508;-122.806;2024-02-21T01:46:39;100167.25;;;25.00;35.46
50852;BME280;43953;45.508;-122.806;2024-02-21T01:47:12;100173.56;;;25.00;35.36
50852;BME280;43953;45.508;-122.806;2024-02-21T01:47:45;100172.75;;;25.00;35.34
50852;BME280;43953;45.508;-122.806;2024-02-21T01:48:21;100176.31;;;25.00;35.35
50852;BME280;43953;45.508;-122.806;2024-02-21T01:48:53;100172.75;;;25.00;35.37
50852;BME280;43953;45.508;-122.806;2024-02-21T01:49:25;100146.41;;;24.76;35.42
50852;BME280;43953;45.508;-122.806;2024-02-21T01:49:57;100184.56;;;25.00;35.53
50852;BME280;43953;45.508;-122.806;2024-02-21T01:50:29;100186.53;;;25.00;35.57
50852;BME280;43953;45.508;-122.806;2024-02-21T01:51:02;100176.63;;;24.98;35.25
50852;BME280;43953;45.508;-122.806;2024-02-21T01:51:36;100182.13;;;24.98;35.33
50852;BME280;43953;45.508;-122.806;2024-02-21T01:52:09;100186.00;;;24.97;35.49
50852;BME280;43953;45.508;-122.806;2024-02-21T01:52:46;100182.47;;;24.97;35.45
50852;BME280;43953;45.508;-122.806;2024-02-21T01:53:30;100189.91;;;24.96;35.37
50852;BME280;43953;45.508;-122.806;2024-02-21T01:54:02;100195.41;;;24.96;35.50
50852;BME280;43953;45.508;-122.806;2024-02-21T01:54:34;100197.34;;;24.96;35.39
50852;BME280;43953;45.508;-122.806;2024-02-21T01:55:07;100195.72;;;24.95;35.32
50852;BME280;43953;45.508;-122.806;2024-02-21T01:55:39;100175.72;;;24.81;35.48
50852;BME280;43953;45.508;-122.806;2024-02-21T01:56:12;100214.19;;;24.94;35.46
50852;BME280;43953;45.508;-122.806;2024-02-21T01:56:45;100212.53;;;24.93;35.39
50852;BME280;43953;45.508;-122.806;2024-02-21T01:57:17;100210.13;;;24.92;35.63
50852;BME280;43953;45.508;-122.806;2024-02-21T01:57:49;100214.50;;;24.93;35.52
50852;BME280;43953;45.508;-122.806;2024-02-21T01:58:22;100210.94;;;24.92;35.57
50852;BME280;43953;45.508;-122.806;2024-02-21T01:58:55;100220.81;;;24.93;35.40
50852;BME280;43953;45.508;-122.806;2024-02-21T01:59:27;100210.94;;;24.92;35.43
50852;BME280;43953;45.508;-122.806;2024-02-21T01:59:59;100203.81;;;24.91;35.60
50852;BME280;43953;45.508;-122.806;2024-02-21T02:00:32;100200.25;;;24.91;35.57
50852;BME280;43953;45.508;-122.806;2024-02-21T02:01:04;100203.81;;;24.91;35.34
50852;BME280;43953;45.508;-122.806;2024-02-21T02:01:36;100193.09;;;24.90;35.55
50852;BME280;43953;45.508;-122.806;2024-02-21T02:02:08;100186.91;;;24.84;35.36
50852;BME280;43953;45.508;-122.806;2024-02-21T02:02:40;100195.22;;;24.93;35.57
50852;BME280;43953;45.508;-122.806;2024-02-21T02:03:14;100185.31;;;24.83;35.46
50852;BME280;43953;45.508;-122.806;2024-02-21T02:03:48;100208.03;;;24.97;35.46
50852;BME280;43953;45.508;-122.806;2024-02-21T02:04:20;100206.59;;;25.00;35.62
50852;BME280;43953;45.508;-122.806;2024-02-21T02:04:52;100210.66;;;25.03;35.54
50852;BME280;43953;45.508;-122.806;2024-02-21T02:05:24;100205.63;;;25.05;35.54
50852;BME280;43953;45.508;-122.806;2024-02-21T02:05:56;100211.66;;;25.07;35.52
50852;BME280;43953;45.508;-122.806;2024-02-21T02:06:28;100212.94;;;25.09;35.35
50852;BME280;43953;45.508;-122.806;2024-02-21T02:07:02;100209.56;;;25.12;35.50
50852;BME280;43953;45.508;-122.806;2024-02-21T02:07:35;100215.59;;;25.14;35.15
50852;BME280;43953;45.508;-122.806;2024-02-21T02:08:07;100216.88;;;25.17;35.34
50852;BME280;43953;45.508;-122.806;2024-02-21T02:08:38;100218.53;;;25.18;35.09
50852;BME280;43953;45.508;-122.806;2024-02-21T02:09:10;100208.31;;;25.18;35.34
50852;BME280;43953;45.508;-122.806;2024-02-21T02:09:43;100215.44;;;25.19;35.19
50852;BME280;43953;45.508;-122.806;2024-02-21T02:10:14;100221.75;;;25.20;35.29
50852;BME280;43953;45.508;-122.806;2024-02-21T02:10:46;100216.88;;;25.17;35.19
50852;BME280;43953;45.508;-122.806;2024-02-21T02:11:18;100224.50;;;25.20;35.33
50852;BME280;43953;45.508;-122.806;2024-02-21T02:11:50;100225.66;;;25.19;35.19
50852;BME280;43953;45.508;-122.806;2024-02-21T02:12:22;100231.16;;;25.19;35.26
50852;BME280;43953;45.508;-122.806;2024-02-21T02:12:55;100224.03;;;25.18;35.06
50852;BME280;43953;45.508;-122.806;2024-02-21T02:13:27;100224.03;;;25.18;35.13
50852;BME280;43953;45.508;-122.806;2024-02-21T02:13:58;100229.53;;;25.18;35.09
50852;BME280;43953;45.508;-122.806;2024-02-21T02:14:30;100220.78;;;25.16;35.01
50852;BME280;43953;45.508;-122.806;2024-02-21T02:15:03;100227.91;;;25.17;35.30
50852;BME280;43953;45.508;-122.806;2024-02-21T02:15:46;100243.97;;;25.15;35.05
50852;BME280;43953;45.508;-122.806;2024-02-21T02:16:18;100244.25;;;25.13;35.15
50852;BME280;43953;45.508;-122.806;2024-02-21T02:16:49;100260.50;;;25.15;35.07
50852;BME280;43953;45.508;-122.806;2024-02-21T02:17:21;100258.84;;;25.14;35.07
50852;BME280;43953;45.508;-122.806;2024-02-21T02:17:53;100265.47;;;25.13;35.14
50852;BME280;43953;45.508;-122.806;2024-02-21T02:18:24;100259.94;;;25.13;35.08
50852;BME280;43953;45.508;-122.806;2024-02-21T02:18:56;100254.44;;;25.13;35.36
50852;BME280;43953;45.508;-122.806;2024-02-21T02:19:28;100256.69;;;25.11;35.08
50852;BME280;43953;45.508;-122.806;2024-02-21T02:19:59;100246.59;;;24.97;35.31
50852;BME280;43953;45.508;-122.806;2024-02-21T02:20:31;100273.22;;;25.11;35.23
50852;BME280;43953;45.508;-122.806;2024-02-21T02:21:05;100275.00;;;25.07;35.29
50852;BME280;43953;45.508;-122.806;2024-02-21T02:21:43;100284.56;;;25.09;35.26
50852;BME280;43953;45.508;-122.806;2024-02-21T02:22:22;100287.31;;;25.09;35.23
50852;BME280;43953;45.508;-122.806;2024-02-21T02:22:54;100292.03;;;25.09;35.46
50852;BME280;43953;45.508;-122.806;2024-02-21T02:23:30;100282.97;;;25.08;35.18
50852;BME280;43953;45.508;-122.806;2024-02-21T02:24:05;100284.06;;;25.07;35.18
50852;BME280;43953;45.508;-122.806;2024-02-21T02:24:37;100289.56;;;25.07;35.16
50852;BME280;43953;45.508;-122.806;2024-02-21T02:25:09;100281.31;;;25.07;35.43
50852;BME280;43953;45.508;-122.806;2024-02-21T02:25:41;100282.13;;;25.08;35.30
50852;BME280;43953;45.508;-122.806;2024-02-21T02:26:12;100277.75;;;25.07;35.29
50852;BME280;43953;45.508;-122.806;2024-02-21T02:26:44;100285.22;;;25.06;35.40
50852;BME280;43953;45.508;-122.806;2024-02-21T02:27:16;100280.81;;;25.05;35.43
50852;BME280;43953;45.508;-122.806;2024-02-21T02:27:48;100281.66;;;25.06;35.29
50852;BME280;43953;45.508;-122.806;2024-02-21T02:28:20;100278.06;;;25.05;35.35
50852;BME280;43953;45.508;-122.806;2024-02-21T02:28:52;100276.44;;;25.04;35.18
50852;BME280;43953;45.508;-122.806;2024-02-21T02:29:24;100283.09;;;25.03;35.16
50852;BME280;43953;45.508;-122.806;2024-02-21T02:29:55;100279.53;;;25.03;35.41
50852;BME280;43953;45.508;-122.806;2024-02-21T02:30:27;100277.88;;;25.02;35.45
50852;BME280;43953;45.508;-122.806;2024-02-21T02:30:59;100273.50;;;25.01;35.27
50852;BME280;43953;45.508;-122.806;2024-02-21T02:31:31;100268.00;;;25.01;35.21
50852;BME280;43953;45.508;-122.806;2024-02-21T02:32:02;100273.50;;;25.01;35.36
50852;BME280;43953;45.508;-122.806;2024-02-21T02:32:34;100259.75;;;25.01;35.41
50852;BME280;43953;45.508;-122.806;2024-02-21T02:33:07;100262.50;;;25.01;35.45
50852;BME280;43953;45.508;-122.806;2024-02-21T02:33:38;100260.88;;;25.00;35.46
50852;BME280;43953;45.508;-122.806;2024-02-21T02:34:10;100261.19;;;24.98;35.26
50852;BME280;43953;45.508;-122.806;2024-02-21T02:34:42;100253.56;;;24.95;35.20
50852;BME280;43953;45.508;-122.806;2024-02-21T02:35:14;100268.63;;;24.97;35.23
50852;BME280;43953;45.508;-122.806;2024-02-21T02:35:46;100270.25;;;24.98;35.31
50852;BME280;43953;45.508;-122.806;2024-02-21T02:36:17;100268.63;;;24.97;35.31
50852;BME280;43953;45.508;-122.806;2024-02-21T02:36:49;100278.03;;;24.96;35.22
50852;BME280;43953;45.508;-122.806;2024-02-21T02:37:21;100265.38;;;24.95;35.54
50852;BME280;43953;45.508;-122.806;2024-02-21T02:37:53;100267.63;;;24.93;35.12
50852;BME280;43953;45.508;-122.806;2024-02-21T02:38:24;100270.88;;;24.95;35.39
50852;BME280;43953;45.508;-122.806;2024-02-21T02:38:56;100265.38;;;24.95;35.54
50852;BME280;43953;45.508;-122.806;2024-02-21T02:39:28;100270.88;;;24.95;35.61
50852;BME280;43953;45.508;-122.806;2024-02-21T02:39:59;100268.13;;;24.95;35.26
50852;BME280;43953;45.508;-122.806;2024-02-21T02:40:34;100279.16;;;24.95;35.53
50852;BME280;43953;45.508;-122.806;2024-02-21T02:41:06;100273.13;;;24.93;35.59
50852;BME280;43953;45.508;-122.806;2024-02-21T02:41:38;100277.03;;;24.92;35.31